sensor_id;sensor_type;location;lat;lon;timestamp;P1;durP1;ratioP1;P2;durP2;ratioP2
48040;SDS011;33815;48.386;11.738;2023-07-28T00:02:15;4.03;;;2.60;;
48040;SDS011;33815;48.386;11.738;2023-07-28T00:04:41;4.07;;;2.50;;
48040;SDS011;33815;48.386;11.738;2023-07-28T00:07:06;4.33;;;2.40;;
48040;SDS011;33815;48.386;11.738;2023-07-28T00:09:31;2.92;;;2.20;;
48040;SDS011;33815;48.386;11.738;2023-07-28T00:11:57;2.78;;;2.22;;
48040;SDS011;33815;48.386;11.738;2023-07-28T00:14:23;2.15;;;1.95;;
48040;SDS011;33815;48.386;11.738;2023-07-28T00:16:50;2.35;;;2.15;;
48040;SDS011;33815;48.386;11.738;2023-07-28T00:19:15;2.58;;;2.17;;
48040;SDS011;33815;48.386;11.738;2023-07-28T00:21:41;3.30;;;2.30;;
48040;SDS011;33815;48.386;11.738;2023-07-28T00:24:06;3.77;;;2.43;;
48040;SDS011;33815;48.386;11.738;2023-07-28T00:26:31;3.10;;;2.50;;
48040;SDS011;33815;48.386;11.738;2023-07-28T00:28:56;2.90;;;2.53;;
48040;SDS011;33815;48.386;11.738;2023-07-28T00:31:23;3.50;;;2.70;;
48040;SDS011;33815;48.386;11.738;2023-07-28T00:33:49;2.50;;;2.30;;
48040;SDS011;33815;48.386;11.738;2023-07-28T00:36:14;3.15;;;2.42;;
48040;SDS011;33815;48.386;11.738;2023-07-28T00:38:39;2.92;;;2.65;;
48040;SDS011;33815;48.386;11.738;2023-07-28T00:41:05;2.85;;;2.40;;
48040;SDS011;33815;48.386;11.738;2023-07-28T00:43:30;2.50;;;2.15;;
48040;SDS011;33815;48.386;11.738;2023-07-28T00:45:55;4.43;;;2.93;;
48040;SDS011;33815;48.386;11.738;2023-07-28T00:48:20;3.23;;;2.33;;
48040;SDS011;33815;48.386;11.738;2023-07-28T00:50:48;3.45;;;2.22;;
48040;SDS011;33815;48.386;11.738;2023-07-28T00:53:14;3.53;;;2.78;;
48040;SDS011;33815;48.386;11.738;2023-07-28T00:55:41;3.63;;;2.67;;
48040;SDS011;33815;48.386;11.738;2023-07-28T00:58:07;4.03;;;2.30;;
48040;SDS011;33815;48.386;11.738;2023-07-28T01:00:33;2.47;;;2.28;;
48040;SDS011;33815;48.386;11.738;2023-07-28T01:02:58;2.87;;;2.50;;
48040;SDS011;33815;48.386;11.738;2023-07-28T01:05:26;2.78;;;2.58;;
48040;SDS011;33815;48.386;11.738;2023-07-28T01:08:18;2.83;;;2.58;;
48040;SDS011;33815;48.386;11.738;2023-07-28T01:10:51;3.10;;;2.55;;
48040;SDS011;33815;48.386;11.738;2023-07-28T01:13:16;3.28;;;2.95;;
48040;SDS011;33815;48.386;11.738;2023-07-28T01:15:41;2.93;;;2.60;;
48040;SDS011;33815;48.386;11.738;2023-07-28T01:18:07;4.07;;;2.37;;
48040;SDS011;33815;48.386;11.738;2023-07-28T01:20:33;6.22;;;2.30;;
48040;SDS011;33815;48.386;11.738;2023-07-28T01:23:36;2.92;;;2.50;;
48040;SDS011;33815;48.386;11.738;2023-07-28T01:28:35;3.83;;;2.60;;
48040;SDS011;33815;48.386;11.738;2023-07-28T01:31:02;3.88;;;2.50;;
48040;SDS011;33815;48.386;11.738;2023-07-28T01:33:29;5.95;;;2.33;;
48040;SDS011;33815;48.386;11.738;2023-07-28T01:35:55;4.30;;;3.03;;
48040;SDS011;33815;48.386;11.738;2023-07-28T01:38:20;3.97;;;2.55;;
48040;SDS011;33815;48.386;11.738;2023-07-28T01:40:46;3.88;;;2.75;;
48040;SDS011;33815;48.386;11.738;2023-07-28T01:43:11;3.00;;;2.50;;
48040;SDS011;33815;48.386;11.738;2023-07-28T01:45:36;3.85;;;3.00;;
48040;SDS011;33815;48.386;11.738;2023-07-28T01:48:01;3.87;;;3.40;;
48040;SDS011;33815;48.386;11.738;2023-07-28T01:50:27;3.63;;;2.70;;
48040;SDS011;33815;48.386;11.738;2023-07-28T01:52:52;4.25;;;3.17;;
48040;SDS011;33815;48.386;11.738;2023-07-28T01:55:17;4.28;;;2.97;;
48040;SDS011;33815;48.386;11.738;2023-07-28T01:57:49;7.97;;;2.78;;
48040;SDS011;33815;48.386;11.738;2023-07-28T02:02:44;2.97;;;2.47;;
48040;SDS011;33815;48.386;11.738;2023-07-28T02:05:09;4.10;;;2.95;;
48040;SDS011;33815;48.386;11.738;2023-07-28T02:07:35;9.55;;;2.90;;
48040;SDS011;33815;48.386;11.738;2023-07-28T02:10:00;4.83;;;3.30;;
48040;SDS011;33815;48.386;11.738;2023-07-28T02:12:25;3.90;;;3.07;;
48040;SDS011;33815;48.386;11.738;2023-07-28T02:14:50;4.37;;;3.13;;
48040;SDS011;33815;48.386;11.738;2023-07-28T02:17:16;6.93;;;3.35;;
48040;SDS011;33815;48.386;11.738;2023-07-28T02:19:41;5.53;;;3.40;;
48040;SDS011;33815;48.386;11.738;2023-07-28T02:22:07;3.92;;;3.20;;
48040;SDS011;33815;48.386;11.738;2023-07-28T02:24:32;5.27;;;3.17;;
48040;SDS011;33815;48.386;11.738;2023-07-28T02:26:57;3.43;;;2.87;;
48040;SDS011;33815;48.386;11.738;2023-07-28T02:29:22;4.07;;;2.80;;
48040;SDS011;33815;48.386;11.738;2023-07-28T02:31:48;3.87;;;2.90;;
48040;SDS011;33815;48.386;11.738;2023-07-28T02:34:13;4.20;;;3.33;;
48040;SDS011;33815;48.386;11.738;2023-07-28T02:36:38;3.97;;;3.20;;
48040;SDS011;33815;48.386;11.738;2023-07-28T02:39:03;4.18;;;3.40;;
48040;SDS011;33815;48.386;11.738;2023-07-28T02:41:29;3.77;;;3.37;;
48040;SDS011;33815;48.386;11.738;2023-07-28T02:43:54;3.97;;;2.67;;
48040;SDS011;33815;48.386;11.738;2023-07-28T02:46:19;3.83;;;3.10;;
48040;SDS011;33815;48.386;11.738;2023-07-28T02:48:45;3.83;;;3.30;;
48040;SDS011;33815;48.386;11.738;2023-07-28T02:51:10;4.35;;;3.10;;
48040;SDS011;33815;48.386;11.738;2023-07-28T02:53:35;3.27;;;2.70;;
48040;SDS011;33815;48.386;11.738;2023-07-28T02:56:01;4.33;;;3.47;;
48040;SDS011;33815;48.386;11.738;2023-07-28T02:58:26;8.63;;;2.95;;
48040;SDS011;33815;48.386;11.738;2023-07-28T03:00:52;5.05;;;3.45;;
48040;SDS011;33815;48.386;11.738;2023-07-28T03:03:17;3.50;;;3.20;;
48040;SDS011;33815;48.386;11.738;2023-07-28T03:05:42;5.90;;;2.95;;
48040;SDS011;33815;48.386;11.738;2023-07-28T03:08:07;4.30;;;2.87;;
48040;SDS011;33815;48.386;11.738;2023-07-28T03:10:33;4.32;;;3.83;;
48040;SDS011;33815;48.386;11.738;2023-07-28T03:12:58;6.85;;;3.33;;
48040;SDS011;33815;48.386;11.738;2023-07-28T03:15:23;4.35;;;3.92;;
48040;SDS011;33815;48.386;11.738;2023-07-28T03:17:52;4.18;;;3.55;;
48040;SDS011;33815;48.386;11.738;2023-07-28T03:20:19;5.40;;;3.92;;
48040;SDS011;33815;48.386;11.738;2023-07-28T03:22:45;4.53;;;3.30;;
48040;SDS011;33815;48.386;11.738;2023-07-28T03:25:10;3.50;;;2.80;;
48040;SDS011;33815;48.386;11.738;2023-07-28T03:27:37;4.85;;;3.40;;
48040;SDS011;33815;48.386;11.738;2023-07-28T03:30:02;3.93;;;3.37;;
48040;SDS011;33815;48.386;11.738;2023-07-28T03:32:27;5.78;;;3.88;;
48040;SDS011;33815;48.386;11.738;2023-07-28T03:34:53;8.77;;;3.87;;
48040;SDS011;33815;48.386;11.738;2023-07-28T03:37:18;9.50;;;4.10;;
48040;SDS011;33815;48.386;11.738;2023-07-28T03:39:44;5.43;;;3.35;;
48040;SDS011;33815;48.386;11.738;2023-07-28T03:42:09;5.90;;;3.33;;
48040;SDS011;33815;48.386;11.738;2023-07-28T03:44:34;6.55;;;3.75;;
48040;SDS011;33815;48.386;11.738;2023-07-28T03:47:02;5.35;;;3.42;;
48040;SDS011;33815;48.386;11.738;2023-07-28T03:49:28;5.90;;;3.70;;
48040;SDS011;33815;48.386;11.738;2023-07-28T03:51:54;10.38;;;5.72;;
48040;SDS011;33815;48.386;11.738;2023-07-28T03:54:19;4.90;;;3.93;;
48040;SDS011;33815;48.386;11.738;2023-07-28T03:56:44;6.32;;;3.85;;
48040;SDS011;33815;48.386;11.738;2023-07-28T03:59:09;9.37;;;3.67;;
48040;SDS011;33815;48.386;11.738;2023-07-28T04:01:35;7.20;;;3.75;;
48040;SDS011;33815;48.386;11.738;2023-07-28T04:04:00;5.30;;;3.00;;
48040;SDS011;33815;48.386;11.738;2023-07-28T04:06:45;7.18;;;3.75;;
48040;SDS011;33815;48.386;11.738;2023-07-28T04:09:12;3.90;;;3.50;;
48040;SDS011;33815;48.386;11.738;2023-07-28T04:11:39;4.93;;;3.83;;
48040;SDS011;33815;48.386;11.738;2023-07-28T04:14:04;12.23;;;4.28;;
48040;SDS011;33815;48.386;11.738;2023-07-28T04:16:30;10.93;;;4.30;;
48040;SDS011;33815;48.386;11.738;2023-07-28T04:18:56;5.78;;;3.92;;
48040;SDS011;33815;48.386;11.738;2023-07-28T04:21:21;5.05;;;3.70;;
48040;SDS011;33815;48.386;11.738;2023-07-28T04:23:47;6.07;;;4.05;;
48040;SDS011;33815;48.386;11.738;2023-07-28T04:26:12;5.10;;;3.50;;
48040;SDS011;33815;48.386;11.738;2023-07-28T04:28:37;9.52;;;3.95;;
48040;SDS011;33815;48.386;11.738;2023-07-28T04:31:03;4.43;;;3.88;;
48040;SDS011;33815;48.386;11.738;2023-07-28T04:33:28;8.27;;;3.80;;
48040;SDS011;33815;48.386;11.738;2023-07-28T04:35:53;5.25;;;3.95;;
48040;SDS011;33815;48.386;11.738;2023-07-28T04:38:18;9.30;;;3.83;;
48040;SDS011;33815;48.386;11.738;2023-07-28T04:40:44;4.38;;;3.55;;
48040;SDS011;33815;48.386;11.738;2023-07-28T04:43:11;6.20;;;3.40;;
48040;SDS011;33815;48.386;11.738;2023-07-28T04:45:36;5.18;;;3.47;;
48040;SDS011;33815;48.386;11.738;2023-07-28T04:48:01;6.73;;;5.30;;
48040;SDS011;33815;48.386;11.738;2023-07-28T04:50:27;5.25;;;3.80;;
48040;SDS011;33815;48.386;11.738;2023-07-28T04:52:53;4.50;;;3.53;;
48040;SDS011;33815;48.386;11.738;2023-07-28T04:55:18;4.55;;;3.40;;
48040;SDS011;33815;48.386;11.738;2023-07-28T04:57:44;8.30;;;4.50;;
48040;SDS011;33815;48.386;11.738;2023-07-28T05:00:09;4.63;;;3.60;;
48040;SDS011;33815;48.386;11.738;2023-07-28T05:02:35;9.48;;;3.83;;
48040;SDS011;33815;48.386;11.738;2023-07-28T05:05:00;6.90;;;4.27;;
48040;SDS011;33815;48.386;11.738;2023-07-28T05:07:25;5.53;;;4.20;;
48040;SDS011;33815;48.386;11.738;2023-07-28T05:09:51;4.93;;;3.77;;
48040;SDS011;33815;48.386;11.738;2023-07-28T05:12:17;4.30;;;3.70;;
48040;SDS011;33815;48.386;11.738;2023-07-28T05:14:42;5.23;;;4.33;;
48040;SDS011;33815;48.386;11.738;2023-07-28T05:17:07;7.43;;;3.58;;
48040;SDS011;33815;48.386;11.738;2023-07-28T05:19:32;6.43;;;3.20;;
48040;SDS011;33815;48.386;11.738;2023-07-28T05:21:58;4.87;;;3.50;;
48040;SDS011;33815;48.386;11.738;2023-07-28T05:24:23;5.60;;;3.25;;
48040;SDS011;33815;48.386;11.738;2023-07-28T05:26:48;5.33;;;3.50;;
48040;SDS011;33815;48.386;11.738;2023-07-28T05:29:13;3.60;;;3.30;;
48040;SDS011;33815;48.386;11.738;2023-07-28T05:31:39;4.82;;;3.22;;
48040;SDS011;33815;48.386;11.738;2023-07-28T05:34:04;3.93;;;3.07;;
48040;SDS011;33815;48.386;11.738;2023-07-28T05:36:29;3.38;;;2.70;;
48040;SDS011;33815;48.386;11.738;2023-07-28T05:38:54;3.50;;;3.03;;
48040;SDS011;33815;48.386;11.738;2023-07-28T05:41:21;3.35;;;2.83;;
48040;SDS011;33815;48.386;11.738;2023-07-28T05:43:47;3.55;;;2.70;;
48040;SDS011;33815;48.386;11.738;2023-07-28T05:46:12;7.03;;;3.63;;
48040;SDS011;33815;48.386;11.738;2023-07-28T05:48:38;4.13;;;2.97;;
48040;SDS011;33815;48.386;11.738;2023-07-28T05:51:04;4.60;;;3.05;;
48040;SDS011;33815;48.386;11.738;2023-07-28T05:53:29;4.63;;;2.83;;
48040;SDS011;33815;48.386;11.738;2023-07-28T05:55:54;3.57;;;2.47;;
48040;SDS011;33815;48.386;11.738;2023-07-28T05:58:20;4.03;;;2.90;;
48040;SDS011;33815;48.386;11.738;2023-07-28T06:00:45;3.50;;;2.67;;
48040;SDS011;33815;48.386;11.738;2023-07-28T06:03:10;4.88;;;2.65;;
48040;SDS011;33815;48.386;11.738;2023-07-28T06:05:39;2.75;;;2.55;;
48040;SDS011;33815;48.386;11.738;2023-07-28T06:08:08;4.95;;;3.20;;
48040;SDS011;33815;48.386;11.738;2023-07-28T06:10:33;3.13;;;2.60;;
48040;SDS011;33815;48.386;11.738;2023-07-28T06:13:00;3.38;;;2.42;;
48040;SDS011;33815;48.386;11.738;2023-07-28T06:15:25;5.95;;;2.95;;
48040;SDS011;33815;48.386;11.738;2023-07-28T06:17:51;4.30;;;3.00;;
48040;SDS011;33815;48.386;11.738;2023-07-28T06:20:16;3.38;;;2.78;;
48040;SDS011;33815;48.386;11.738;2023-07-28T06:22:42;3.13;;;2.17;;
48040;SDS011;33815;48.386;11.738;2023-07-28T06:25:07;4.13;;;2.63;;
48040;SDS011;33815;48.386;11.738;2023-07-28T06:27:32;3.17;;;2.58;;
48040;SDS011;33815;48.386;11.738;2023-07-28T06:29:58;3.90;;;2.55;;
48040;SDS011;33815;48.386;11.738;2023-07-28T06:32:23;2.92;;;2.30;;
48040;SDS011;33815;48.386;11.738;2023-07-28T06:34:49;4.40;;;2.40;;
48040;SDS011;33815;48.386;11.738;2023-07-28T06:37:15;2.75;;;2.20;;
48040;SDS011;33815;48.386;11.738;2023-07-28T06:39:40;2.70;;;2.35;;
48040;SDS011;33815;48.386;11.738;2023-07-28T06:42:06;3.90;;;2.45;;
48040;SDS011;33815;48.386;11.738;2023-07-28T06:44:32;4.32;;;1.88;;
48040;SDS011;33815;48.386;11.738;2023-07-28T06:46:57;4.87;;;2.10;;
48040;SDS011;33815;48.386;11.738;2023-07-28T06:49:22;4.23;;;1.93;;
48040;SDS011;33815;48.386;11.738;2023-07-28T06:51:48;3.30;;;1.65;;
48040;SDS011;33815;48.386;11.738;2023-07-28T06:54:13;3.70;;;2.30;;
48040;SDS011;33815;48.386;11.738;2023-07-28T06:56:39;2.20;;;1.63;;
48040;SDS011;33815;48.386;11.738;2023-07-28T06:59:05;2.10;;;1.90;;
48040;SDS011;33815;48.386;11.738;2023-07-28T07:01:31;2.78;;;2.20;;
48040;SDS011;33815;48.386;11.738;2023-07-28T07:03:57;2.50;;;1.95;;
48040;SDS011;33815;48.386;11.738;2023-07-28T07:06:22;3.28;;;1.85;;
48040;SDS011;33815;48.386;11.738;2023-07-28T07:08:47;2.30;;;1.90;;
48040;SDS011;33815;48.386;11.738;2023-07-28T07:11:13;2.40;;;1.90;;
48040;SDS011;33815;48.386;11.738;2023-07-28T07:13:38;3.35;;;2.03;;
48040;SDS011;33815;48.386;11.738;2023-07-28T07:16:03;2.27;;;2.00;;
48040;SDS011;33815;48.386;11.738;2023-07-28T07:18:29;2.05;;;1.48;;
48040;SDS011;33815;48.386;11.738;2023-07-28T07:20:54;2.13;;;1.93;;
48040;SDS011;33815;48.386;11.738;2023-07-28T07:23:19;2.13;;;1.77;;
48040;SDS011;33815;48.386;11.738;2023-07-28T07:25:44;1.73;;;1.63;;
48040;SDS011;33815;48.386;11.738;2023-07-28T07:28:10;7.40;;;2.13;;
48040;SDS011;33815;48.386;11.738;2023-07-28T07:30:35;2.20;;;1.90;;
48040;SDS011;33815;48.386;11.738;2023-07-28T07:33:01;3.30;;;1.58;;
48040;SDS011;33815;48.386;11.738;2023-07-28T07:35:26;2.83;;;2.05;;
48040;SDS011;33815;48.386;11.738;2023-07-28T07:37:51;2.13;;;1.77;;
48040;SDS011;33815;48.386;11.738;2023-07-28T07:40:17;2.10;;;1.73;;
48040;SDS011;33815;48.386;11.738;2023-07-28T07:45:09;2.50;;;1.80;;
48040;SDS011;33815;48.386;11.738;2023-07-28T07:47:35;3.38;;;1.58;;
48040;SDS011;33815;48.386;11.738;2023-07-28T07:50:00;5.00;;;1.90;;
48040;SDS011;33815;48.386;11.738;2023-07-28T07:52:26;3.30;;;1.83;;
48040;SDS011;33815;48.386;11.738;2023-07-28T07:54:51;2.37;;;1.90;;
48040;SDS011;33815;48.386;11.738;2023-07-28T07:57:16;1.90;;;1.53;;
48040;SDS011;33815;48.386;11.738;2023-07-28T07:59:42;3.40;;;1.85;;
48040;SDS011;33815;48.386;11.738;2023-07-28T08:02:07;2.28;;;1.83;;
48040;SDS011;33815;48.386;11.738;2023-07-28T08:04:33;6.10;;;1.93;;
48040;SDS011;33815;48.386;11.738;2023-07-28T08:06:58;2.30;;;1.97;;
48040;SDS011;33815;48.386;11.738;2023-07-28T08:09:23;2.63;;;1.90;;
48040;SDS011;33815;48.386;11.738;2023-07-28T08:11:49;2.53;;;2.10;;
48040;SDS011;33815;48.386;11.738;2023-07-28T08:14:15;2.70;;;2.08;;
48040;SDS011;33815;48.386;11.738;2023-07-28T08:16:40;1.77;;;1.60;;
48040;SDS011;33815;48.386;11.738;2023-07-28T08:19:05;1.60;;;1.50;;
48040;SDS011;33815;48.386;11.738;2023-07-28T08:21:30;4.43;;;1.73;;
48040;SDS011;33815;48.386;11.738;2023-07-28T08:24:01;3.53;;;1.98;;
48040;SDS011;33815;48.386;11.738;2023-07-28T08:26:26;2.25;;;1.73;;
48040;SDS011;33815;48.386;11.738;2023-07-28T08:28:52;2.23;;;2.00;;
48040;SDS011;33815;48.386;11.738;2023-07-28T08:31:17;2.30;;;1.60;;
48040;SDS011;33815;48.386;11.738;2023-07-28T08:33:42;3.90;;;1.83;;
48040;SDS011;33815;48.386;11.738;2023-07-28T08:36:07;1.80;;;1.70;;
48040;SDS011;33815;48.386;11.738;2023-07-28T08:38:32;2.40;;;1.97;;
48040;SDS011;33815;48.386;11.738;2023-07-28T08:40:58;1.93;;;1.77;;
48040;SDS011;33815;48.386;11.738;2023-07-28T08:43:23;2.28;;;1.63;;
48040;SDS011;33815;48.386;11.738;2023-07-28T08:45:49;2.72;;;1.67;;
48040;SDS011;33815;48.386;11.738;2023-07-28T08:48:15;1.88;;;1.77;;
48040;SDS011;33815;48.386;11.738;2023-07-28T08:50:40;2.00;;;1.70;;
48040;SDS011;33815;48.386;11.738;2023-07-28T08:53:05;2.33;;;1.30;;
48040;SDS011;33815;48.386;11.738;2023-07-28T08:55:30;1.90;;;1.57;;
48040;SDS011;33815;48.386;11.738;2023-07-28T08:58:13;3.97;;;1.83;;
48040;SDS011;33815;48.386;11.738;2023-07-28T09:00:42;3.05;;;1.75;;
48040;SDS011;33815;48.386;11.738;2023-07-28T09:03:10;2.03;;;1.70;;
48040;SDS011;33815;48.386;11.738;2023-07-28T09:05:36;10.68;;;2.10;;
48040;SDS011;33815;48.386;11.738;2023-07-28T09:08:01;6.10;;;1.85;;
48040;SDS011;33815;48.386;11.738;2023-07-28T09:10:39;5.38;;;1.80;;
48040;SDS011;33815;48.386;11.738;2023-07-28T09:13:12;2.40;;;1.80;;
48040;SDS011;33815;48.386;11.738;2023-07-28T09:15:38;2.83;;;1.75;;
48040;SDS011;33815;48.386;11.738;2023-07-28T09:18:06;2.70;;;2.10;;
48040;SDS011;33815;48.386;11.738;2023-07-28T09:20:34;2.20;;;1.95;;
48040;SDS011;33815;48.386;11.738;2023-07-28T09:23:01;2.80;;;1.95;;
48040;SDS011;33815;48.386;11.738;2023-07-28T09:25:28;6.15;;;2.08;;
48040;SDS011;33815;48.386;11.738;2023-07-28T09:27:54;2.10;;;1.80;;
48040;SDS011;33815;48.386;11.738;2023-07-28T09:30:20;2.30;;;1.65;;
48040;SDS011;33815;48.386;11.738;2023-07-28T09:32:47;5.35;;;1.95;;
48040;SDS011;33815;48.386;11.738;2023-07-28T09:35:14;2.13;;;1.90;;
48040;SDS011;33815;48.386;11.738;2023-07-28T09:37:41;1.67;;;1.58;;
48040;SDS011;33815;48.386;11.738;2023-07-28T09:40:08;2.53;;;1.67;;
48040;SDS011;33815;48.386;11.738;2023-07-28T09:42:40;1.65;;;1.55;;
48040;SDS011;33815;48.386;11.738;2023-07-28T09:45:07;2.72;;;1.60;;
48040;SDS011;33815;48.386;11.738;2023-07-28T09:47:36;1.80;;;1.67;;
48040;SDS011;33815;48.386;11.738;2023-07-28T09:50:04;1.77;;;1.65;;
48040;SDS011;33815;48.386;11.738;2023-07-28T09:52:35;2.88;;;2.03;;
48040;SDS011;33815;48.386;11.738;2023-07-28T09:55:05;4.65;;;1.67;;
48040;SDS011;33815;48.386;11.738;2023-07-28T09:57:35;2.17;;;1.77;;
48040;SDS011;33815;48.386;11.738;2023-07-28T10:00:03;2.72;;;2.15;;
48040;SDS011;33815;48.386;11.738;2023-07-28T10:02:30;3.15;;;1.98;;
48040;SDS011;33815;48.386;11.738;2023-07-28T10:04:56;3.05;;;2.30;;
48040;SDS011;33815;48.386;11.738;2023-07-28T10:07:23;2.20;;;2.00;;
48040;SDS011;33815;48.386;11.738;2023-07-28T10:09:49;3.20;;;1.77;;
48040;SDS011;33815;48.386;11.738;2023-07-28T10:12:18;3.58;;;2.45;;
48040;SDS011;33815;48.386;11.738;2023-07-28T10:14:59;2.17;;;1.53;;
48040;SDS011;33815;48.386;11.738;2023-07-28T10:17:30;2.83;;;2.08;;
48040;SDS011;33815;48.386;11.738;2023-07-28T10:19:57;2.70;;;2.05;;
48040;SDS011;33815;48.386;11.738;2023-07-28T10:22:23;4.05;;;2.95;;
48040;SDS011;33815;48.386;11.738;2023-07-28T10:24:54;2.70;;;1.80;;
48040;SDS011;33815;48.386;11.738;2023-07-28T10:29:59;2.05;;;1.52;;
48040;SDS011;33815;48.386;11.738;2023-07-28T10:32:26;4.00;;;2.30;;
48040;SDS011;33815;48.386;11.738;2023-07-28T10:35:00;5.30;;;1.65;;
48040;SDS011;33815;48.386;11.738;2023-07-28T10:37:25;2.58;;;1.85;;
48040;SDS011;33815;48.386;11.738;2023-07-28T10:40:13;2.20;;;2.00;;
48040;SDS011;33815;48.386;11.738;2023-07-28T10:42:51;2.10;;;1.83;;
48040;SDS011;33815;48.386;11.738;2023-07-28T10:45:17;2.08;;;1.50;;
48040;SDS011;33815;48.386;11.738;2023-07-28T10:47:43;1.77;;;1.67;;
48040;SDS011;33815;48.386;11.738;2023-07-28T10:50:10;7.68;;;2.13;;
48040;SDS011;33815;48.386;11.738;2023-07-28T10:52:43;2.78;;;1.95;;
48040;SDS011;33815;48.386;11.738;2023-07-28T10:57:42;1.95;;;1.58;;
48040;SDS011;33815;48.386;11.738;2023-07-28T11:00:09;1.70;;;1.60;;
48040;SDS011;33815;48.386;11.738;2023-07-28T11:02:37;3.63;;;1.92;;
48040;SDS011;33815;48.386;11.738;2023-07-28T11:05:18;3.10;;;1.90;;
48040;SDS011;33815;48.386;11.738;2023-07-28T11:07:51;2.65;;;2.45;;
48040;SDS011;33815;48.386;11.738;2023-07-28T11:10:20;3.50;;;1.85;;
48040;SDS011;33815;48.386;11.738;2023-07-28T11:12:47;3.03;;;1.75;;
48040;SDS011;33815;48.386;11.738;2023-07-28T11:15:15;2.58;;;1.85;;
48040;SDS011;33815;48.386;11.738;2023-07-28T11:17:44;5.40;;;1.92;;
48040;SDS011;33815;48.386;11.738;2023-07-28T11:20:29;2.17;;;1.98;;
48040;SDS011;33815;48.386;11.738;2023-07-28T11:22:55;2.20;;;2.00;;
48040;SDS011;33815;48.386;11.738;2023-07-28T11:25:22;2.05;;;1.90;;
48040;SDS011;33815;48.386;11.738;2023-07-28T11:27:49;3.65;;;1.75;;
48040;SDS011;33815;48.386;11.738;2023-07-28T11:30:15;1.90;;;1.75;;
48040;SDS011;33815;48.386;11.738;2023-07-28T11:32:48;2.10;;;1.90;;
48040;SDS011;33815;48.386;11.738;2023-07-28T11:35:15;6.18;;;2.15;;
48040;SDS011;33815;48.386;11.738;2023-07-28T11:37:43;2.03;;;1.75;;
48040;SDS011;33815;48.386;11.738;2023-07-28T11:40:14;4.07;;;2.30;;
48040;SDS011;33815;48.386;11.738;2023-07-28T11:42:44;4.82;;;2.25;;
48040;SDS011;33815;48.386;11.738;2023-07-28T11:45:12;2.83;;;2.10;;
48040;SDS011;33815;48.386;11.738;2023-07-28T11:47:39;2.90;;;2.22;;
48040;SDS011;33815;48.386;11.738;2023-07-28T11:50:04;2.80;;;2.15;;
48040;SDS011;33815;48.386;11.738;2023-07-28T11:52:33;2.90;;;2.58;;
48040;SDS011;33815;48.386;11.738;2023-07-28T11:55:00;3.33;;;2.33;;
48040;SDS011;33815;48.386;11.738;2023-07-28T11:57:26;4.07;;;2.58;;
48040;SDS011;33815;48.386;11.738;2023-07-28T11:59:54;5.05;;;2.60;;
48040;SDS011;33815;48.386;11.738;2023-07-28T12:02:27;2.75;;;2.40;;
48040;SDS011;33815;48.386;11.738;2023-07-28T12:04:53;5.25;;;2.35;;
48040;SDS011;33815;48.386;11.738;2023-07-28T12:07:26;3.25;;;2.83;;
48040;SDS011;33815;48.386;11.738;2023-07-28T12:09:54;7.50;;;2.60;;
48040;SDS011;33815;48.386;11.738;2023-07-28T12:12:26;2.63;;;2.00;;
48040;SDS011;33815;48.386;11.738;2023-07-28T12:14:54;3.55;;;2.22;;
48040;SDS011;33815;48.386;11.738;2023-07-28T12:17:20;3.20;;;2.50;;
48040;SDS011;33815;48.386;11.738;2023-07-28T12:22:26;2.28;;;1.92;;
48040;SDS011;33815;48.386;11.738;2023-07-28T12:24:52;2.85;;;2.40;;
48040;SDS011;33815;48.386;11.738;2023-07-28T12:27:18;2.38;;;1.95;;
48040;SDS011;33815;48.386;11.738;2023-07-28T12:29:45;2.40;;;2.13;;
48040;SDS011;33815;48.386;11.738;2023-07-28T12:32:11;2.10;;;1.90;;
48040;SDS011;33815;48.386;11.738;2023-07-28T12:34:36;4.20;;;3.10;;
48040;SDS011;33815;48.386;11.738;2023-07-28T12:37:01;2.53;;;1.87;;
48040;SDS011;33815;48.386;11.738;2023-07-28T12:39:27;2.28;;;1.98;;
48040;SDS011;33815;48.386;11.738;2023-07-28T12:41:54;3.83;;;2.22;;
48040;SDS011;33815;48.386;11.738;2023-07-28T12:44:19;2.83;;;2.22;;
48040;SDS011;33815;48.386;11.738;2023-07-28T12:46:45;3.30;;;2.25;;
48040;SDS011;33815;48.386;11.738;2023-07-28T12:49:10;1.92;;;1.80;;
48040;SDS011;33815;48.386;11.738;2023-07-28T12:51:36;1.80;;;1.63;;
48040;SDS011;33815;48.386;11.738;2023-07-28T12:54:01;2.17;;;1.97;;
48040;SDS011;33815;48.386;11.738;2023-07-28T12:56:26;3.47;;;2.13;;
48040;SDS011;33815;48.386;11.738;2023-07-28T12:58:51;2.05;;;1.85;;
48040;SDS011;33815;48.386;11.738;2023-07-28T13:01:17;2.77;;;1.80;;
48040;SDS011;33815;48.386;11.738;2023-07-28T13:03:42;2.67;;;2.20;;
48040;SDS011;33815;48.386;11.738;2023-07-28T13:06:07;2.10;;;1.90;;
48040;SDS011;33815;48.386;11.738;2023-07-28T13:08:32;4.37;;;2.23;;
48040;SDS011;33815;48.386;11.738;2023-07-28T13:10:58;1.80;;;1.70;;
48040;SDS011;33815;48.386;11.738;2023-07-28T13:13:23;2.97;;;2.23;;
48040;SDS011;33815;48.386;11.738;2023-07-28T13:15:48;2.20;;;2.00;;
48040;SDS011;33815;48.386;11.738;2023-07-28T13:18:14;2.60;;;2.00;;
48040;SDS011;33815;48.386;11.738;2023-07-28T13:20:39;3.67;;;2.13;;
48040;SDS011;33815;48.386;11.738;2023-07-28T13:23:04;5.90;;;1.70;;
48040;SDS011;33815;48.386;11.738;2023-07-28T13:25:29;2.53;;;2.00;;
48040;SDS011;33815;48.386;11.738;2023-07-28T13:27:55;3.08;;;1.75;;
48040;SDS011;33815;48.386;11.738;2023-07-28T13:30:20;3.38;;;2.20;;
48040;SDS011;33815;48.386;11.738;2023-07-28T13:32:45;3.53;;;2.30;;
48040;SDS011;33815;48.386;11.738;2023-07-28T13:35:11;6.73;;;3.20;;
48040;SDS011;33815;48.386;11.738;2023-07-28T13:37:36;2.33;;;2.00;;
48040;SDS011;33815;48.386;11.738;2023-07-28T13:40:01;4.90;;;2.05;;
48040;SDS011;33815;48.386;11.738;2023-07-28T13:42:27;3.30;;;1.90;;
48040;SDS011;33815;48.386;11.738;2023-07-28T13:44:52;3.30;;;1.80;;
48040;SDS011;33815;48.386;11.738;2023-07-28T13:47:17;4.53;;;1.83;;
48040;SDS011;33815;48.386;11.738;2023-07-28T13:49:43;3.73;;;2.10;;
48040;SDS011;33815;48.386;11.738;2023-07-28T13:52:08;2.17;;;1.87;;
48040;SDS011;33815;48.386;11.738;2023-07-28T13:54:33;4.57;;;2.50;;
48040;SDS011;33815;48.386;11.738;2023-07-28T13:56:58;2.67;;;2.30;;
48040;SDS011;33815;48.386;11.738;2023-07-28T13:59:24;2.57;;;2.10;;
48040;SDS011;33815;48.386;11.738;2023-07-28T14:01:49;3.13;;;2.78;;
48040;SDS011;33815;48.386;11.738;2023-07-28T14:04:15;1.90;;;1.77;;
48040;SDS011;33815;48.386;11.738;2023-07-28T14:06:40;2.30;;;1.88;;
48040;SDS011;33815;48.386;11.738;2023-07-28T14:09:06;2.97;;;2.33;;
48040;SDS011;33815;48.386;11.738;2023-07-28T14:11:31;1.85;;;1.65;;
48040;SDS011;33815;48.386;11.738;2023-07-28T14:13:57;2.33;;;2.13;;
48040;SDS011;33815;48.386;11.738;2023-07-28T14:16:22;7.03;;;2.23;;
48040;SDS011;33815;48.386;11.738;2023-07-28T14:18:47;2.07;;;1.87;;
48040;SDS011;33815;48.386;11.738;2023-07-28T14:21:13;3.85;;;2.50;;
48040;SDS011;33815;48.386;11.738;2023-07-28T14:23:39;7.55;;;2.50;;
48040;SDS011;33815;48.386;11.738;2023-07-28T14:26:04;3.17;;;2.17;;
48040;SDS011;33815;48.386;11.738;2023-07-28T14:28:29;2.92;;;2.17;;
48040;SDS011;33815;48.386;11.738;2023-07-28T14:30:55;2.17;;;1.98;;
48040;SDS011;33815;48.386;11.738;2023-07-28T14:33:20;2.43;;;2.03;;
48040;SDS011;33815;48.386;11.738;2023-07-28T14:35:46;4.90;;;2.33;;
48040;SDS011;33815;48.386;11.738;2023-07-28T14:38:13;4.22;;;2.20;;
48040;SDS011;33815;48.386;11.738;2023-07-28T14:40:38;2.30;;;2.00;;
48040;SDS011;33815;48.386;11.738;2023-07-28T14:43:05;4.32;;;2.38;;
48040;SDS011;33815;48.386;11.738;2023-07-28T14:45:30;3.83;;;2.50;;